sensor_id;sensor_type;location;lat;lon;timestamp;P1;durP1;ratioP1;P2;durP2;ratioP2
53453;SDS011;49404;50.472;6.954;2022-08-19T00:02:10;6.10;;;5.57;;
53453;SDS011;49404;50.472;6.954;2022-08-19T00:04:38;8.52;;;4.78;;
53453;SDS011;49404;50.472;6.954;2022-08-19T00:07:05;4.68;;;4.20;;
53453;SDS011;49404;50.472;6.954;2022-08-19T00:09:31;4.97;;;4.53;;
53453;SDS011;49404;50.472;6.954;2022-08-19T00:11:57;4.90;;;4.50;;
53453;SDS011;49404;50.472;6.954;2022-08-19T00:14:27;4.80;;;4.15;;
53453;SDS011;49404;50.472;6.954;2022-08-19T00:16:59;4.25;;;3.88;;
53453;SDS011;49404;50.472;6.954;2022-08-19T00:19:32;4.25;;;3.85;;
53453;SDS011;49404;50.472;6.954;2022-08-19T00:21:58;5.68;;;3.80;;
53453;SDS011;49404;50.472;6.954;2022-08-19T00:24:27;5.20;;;3.80;;
53453;SDS011;49404;50.472;6.954;2022-08-19T00:26:53;3.90;;;3.50;;
53453;SDS011;49404;50.472;6.954;2022-08-19T00:29:20;4.88;;;3.75;;
53453;SDS011;49404;50.472;6.954;2022-08-19T00:31:47;4.75;;;3.65;;
53453;SDS011;49404;50.472;6.954;2022-08-19T00:34:21;4.32;;;3.92;;
53453;SDS011;49404;50.472;6.954;2022-08-19T00:36:48;5.47;;;4.00;;
53453;SDS011;49404;50.472;6.954;2022-08-19T00:39:17;3.92;;;3.50;;
53453;SDS011;49404;50.472;6.954;2022-08-19T00:41:43;4.15;;;3.75;;
53453;SDS011;49404;50.472;6.954;2022-08-19T00:46:46;5.80;;;4.35;;
53453;SDS011;49404;50.472;6.954;2022-08-19T00:49:22;6.63;;;4.35;;
53453;SDS011;49404;50.472;6.954;2022-08-19T00:51:53;3.97;;;3.65;;
53453;SDS011;49404;50.472;6.954;2022-08-19T00:54:30;4.13;;;3.65;;
53453;SDS011;49404;50.472;6.954;2022-08-19T00:56:57;4.63;;;3.90;;
53453;SDS011;49404;50.472;6.954;2022-08-19T00:59:28;3.97;;;3.63;;
53453;SDS011;49404;50.472;6.954;2022-08-19T01:01:54;4.63;;;3.28;;
53453;SDS011;49404;50.472;6.954;2022-08-19T01:04:20;3.92;;;3.63;;
53453;SDS011;49404;50.472;6.954;2022-08-19T01:06:45;4.15;;;3.85;;
53453;SDS011;49404;50.472;6.954;2022-08-19T01:09:11;5.45;;;4.30;;
53453;SDS011;49404;50.472;6.954;2022-08-19T01:11:42;4.40;;;3.88;;
53453;SDS011;49404;50.472;6.954;2022-08-19T01:14:18;4.05;;;3.65;;
53453;SDS011;49404;50.472;6.954;2022-08-19T01:16:44;7.07;;;4.97;;
53453;SDS011;49404;50.472;6.954;2022-08-19T01:19:26;4.45;;;4.05;;
53453;SDS011;49404;50.472;6.954;2022-08-19T01:24:47;4.20;;;3.80;;
53453;SDS011;49404;50.472;6.954;2022-08-19T01:27:19;4.53;;;4.13;;
53453;SDS011;49404;50.472;6.954;2022-08-19T01:29:45;4.30;;;3.90;;
53453;SDS011;49404;50.472;6.954;2022-08-19T01:32:12;5.28;;;4.30;;
53453;SDS011;49404;50.472;6.954;2022-08-19T01:34:41;5.97;;;4.32;;
53453;SDS011;49404;50.472;6.954;2022-08-19T01:37:11;5.80;;;4.40;;
53453;SDS011;49404;50.472;6.954;2022-08-19T01:39:44;5.10;;;4.60;;
53453;SDS011;49404;50.472;6.954;2022-08-19T01:42:09;4.65;;;4.18;;
53453;SDS011;49404;50.472;6.954;2022-08-19T01:44:40;4.38;;;4.07;;
53453;SDS011;49404;50.472;6.954;2022-08-19T01:47:08;5.38;;;4.80;;
53453;SDS011;49404;50.472;6.954;2022-08-19T01:49:40;5.57;;;5.13;;
53453;SDS011;49404;50.472;6.954;2022-08-19T01:52:05;5.75;;;5.35;;
53453;SDS011;49404;50.472;6.954;2022-08-19T01:54:32;6.63;;;6.13;;
53453;SDS011;49404;50.472;6.954;2022-08-19T01:57:01;5.65;;;5.25;;
53453;SDS011;49404;50.472;6.954;2022-08-19T01:59:33;4.75;;;4.35;;
53453;SDS011;49404;50.472;6.954;2022-08-19T02:02:04;5.15;;;4.75;;
53453;SDS011;49404;50.472;6.954;2022-08-19T02:04:33;5.35;;;4.95;;
53453;SDS011;49404;50.472;6.954;2022-08-19T02:07:00;5.40;;;5.00;;
53453;SDS011;49404;50.472;6.954;2022-08-19T02:09:32;5.50;;;5.10;;
53453;SDS011;49404;50.472;6.954;2022-08-19T02:11:59;4.82;;;4.43;;
53453;SDS011;49404;50.472;6.954;2022-08-19T02:14:33;5.63;;;5.13;;
53453;SDS011;49404;50.472;6.954;2022-08-19T02:17:04;4.88;;;4.38;;
53453;SDS011;49404;50.472;6.954;2022-08-19T02:19:32;4.68;;;4.22;;
53453;SDS011;49404;50.472;6.954;2022-08-19T02:21:58;5.55;;;3.70;;
53453;SDS011;49404;50.472;6.954;2022-08-19T02:24:25;4.85;;;4.45;;
53453;SDS011;49404;50.472;6.954;2022-08-19T02:26:56;4.10;;;3.78;;
53453;SDS011;49404;50.472;6.954;2022-08-19T02:29:23;4.60;;;4.20;;
53453;SDS011;49404;50.472;6.954;2022-08-19T02:31:52;4.78;;;4.47;;
53453;SDS011;49404;50.472;6.954;2022-08-19T02:34:21;5.30;;;4.82;;
53453;SDS011;49404;50.472;6.954;2022-08-19T02:36:54;5.57;;;5.07;;
53453;SDS011;49404;50.472;6.954;2022-08-19T02:39:19;5.72;;;5.20;;
53453;SDS011;49404;50.472;6.954;2022-08-19T02:41:45;7.47;;;5.82;;
53453;SDS011;49404;50.472;6.954;2022-08-19T02:44:16;5.85;;;5.32;;
53453;SDS011;49404;50.472;6.954;2022-08-19T02:46:41;6.15;;;5.65;;
53453;SDS011;49404;50.472;6.954;2022-08-19T02:49:10;4.97;;;4.57;;
53453;SDS011;49404;50.472;6.954;2022-08-19T02:51:42;5.35;;;4.50;;
53453;SDS011;49404;50.472;6.954;2022-08-19T02:54:17;5.25;;;4.85;;
53453;SDS011;49404;50.472;6.954;2022-08-19T02:56:47;5.85;;;5.25;;
53453;SDS011;49404;50.472;6.954;2022-08-19T02:59:16;6.30;;;5.78;;
53453;SDS011;49404;50.472;6.954;2022-08-19T03:01:42;5.35;;;4.95;;
53453;SDS011;49404;50.472;6.954;2022-08-19T03:04:08;5.28;;;4.78;;
53453;SDS011;49404;50.472;6.954;2022-08-19T03:06:36;5.20;;;4.70;;
53453;SDS011;49404;50.472;6.954;2022-08-19T03:09:06;6.20;;;5.65;;
53453;SDS011;49404;50.472;6.954;2022-08-19T03:11:34;5.38;;;4.97;;
53453;SDS011;49404;50.472;6.954;2022-08-19T03:14:05;6.03;;;5.53;;
53453;SDS011;49404;50.472;6.954;2022-08-19T03:16:34;6.68;;;6.03;;
53453;SDS011;49404;50.472;6.954;2022-08-19T03:19:06;4.88;;;4.38;;
53453;SDS011;49404;50.472;6.954;2022-08-19T03:21:32;5.70;;;5.20;;
53453;SDS011;49404;50.472;6.954;2022-08-19T03:23:59;4.70;;;4.30;;
53453;SDS011;49404;50.472;6.954;2022-08-19T03:26:33;4.90;;;4.50;;
53453;SDS011;49404;50.472;6.954;2022-08-19T03:29:08;5.55;;;4.60;;
53453;SDS011;49404;50.472;6.954;2022-08-19T03:31:36;4.10;;;3.80;;
53453;SDS011;49404;50.472;6.954;2022-08-19T03:34:10;5.68;;;5.18;;
53453;SDS011;49404;50.472;6.954;2022-08-19T03:36:37;7.28;;;6.40;;
53453;SDS011;49404;50.472;6.954;2022-08-19T03:39:06;5.78;;;5.28;;
53453;SDS011;49404;50.472;6.954;2022-08-19T03:41:39;6.20;;;5.70;;
53453;SDS011;49404;50.472;6.954;2022-08-19T03:44:08;5.82;;;5.35;;
53453;SDS011;49404;50.472;6.954;2022-08-19T03:46:34;7.10;;;6.60;;
53453;SDS011;49404;50.472;6.954;2022-08-19T03:49:00;6.60;;;6.00;;
53453;SDS011;49404;50.472;6.954;2022-08-19T03:51:35;5.32;;;4.93;;
53453;SDS011;49404;50.472;6.954;2022-08-19T03:54:06;5.90;;;5.35;;
53453;SDS011;49404;50.472;6.954;2022-08-19T03:56:34;7.63;;;7.03;;
53453;SDS011;49404;50.472;6.954;2022-08-19T03:59:01;5.55;;;4.70;;
53453;SDS011;49404;50.472;6.954;2022-08-19T04:01:34;6.70;;;6.18;;
53453;SDS011;49404;50.472;6.954;2022-08-19T04:04:00;8.02;;;7.50;;
53453;SDS011;49404;50.472;6.954;2022-08-19T04:06:33;6.45;;;5.95;;
53453;SDS011;49404;50.472;6.954;2022-08-19T04:09:02;10.65;;;9.85;;
53453;SDS011;49404;50.472;6.954;2022-08-19T04:11:35;10.10;;;9.40;;
53453;SDS011;49404;50.472;6.954;2022-08-19T04:14:10;9.43;;;8.73;;
53453;SDS011;49404;50.472;6.954;2022-08-19T04:16:37;7.78;;;7.28;;
53453;SDS011;49404;50.472;6.954;2022-08-19T04:19:08;10.18;;;9.48;;
53453;SDS011;49404;50.472;6.954;2022-08-19T04:21:35;12.00;;;11.15;;
53453;SDS011;49404;50.472;6.954;2022-08-19T04:24:00;10.98;;;10.18;;
53453;SDS011;49404;50.472;6.954;2022-08-19T04:26:33;10.15;;;9.45;;
53453;SDS011;49404;50.472;6.954;2022-08-19T04:29:03;11.55;;;10.30;;
53453;SDS011;49404;50.472;6.954;2022-08-19T04:31:32;10.00;;;9.30;;
53453;SDS011;49404;50.472;6.954;2022-08-19T04:34:02;13.02;;;12.18;;
53453;SDS011;49404;50.472;6.954;2022-08-19T04:36:34;10.18;;;9.40;;
53453;SDS011;49404;50.472;6.954;2022-08-19T04:39:02;11.45;;;10.50;;
53453;SDS011;49404;50.472;6.954;2022-08-19T04:41:36;14.07;;;12.90;;
53453;SDS011;49404;50.472;6.954;2022-08-19T04:44:20;13.68;;;12.88;;
53453;SDS011;49404;50.472;6.954;2022-08-19T04:46:46;15.23;;;13.82;;
53453;SDS011;49404;50.472;6.954;2022-08-19T04:49:20;14.32;;;13.13;;
53453;SDS011;49404;50.472;6.954;2022-08-19T04:51:50;9.63;;;8.93;;
53453;SDS011;49404;50.472;6.954;2022-08-19T04:54:21;11.13;;;10.48;;
53453;SDS011;49404;50.472;6.954;2022-08-19T04:56:51;15.25;;;13.57;;
53453;SDS011;49404;50.472;6.954;2022-08-19T04:59:20;10.20;;;9.60;;
53453;SDS011;49404;50.472;6.954;2022-08-19T05:01:46;12.00;;;11.13;;
53453;SDS011;49404;50.472;6.954;2022-08-19T05:04:23;15.13;;;14.23;;
53453;SDS011;49404;50.472;6.954;2022-08-19T05:06:48;13.63;;;12.80;;
53453;SDS011;49404;50.472;6.954;2022-08-19T05:09:18;12.32;;;11.52;;
53453;SDS011;49404;50.472;6.954;2022-08-19T05:11:46;13.68;;;12.52;;
53453;SDS011;49404;50.472;6.954;2022-08-19T05:14:20;10.40;;;9.70;;
53453;SDS011;49404;50.472;6.954;2022-08-19T05:16:46;15.73;;;14.73;;
53453;SDS011;49404;50.472;6.954;2022-08-19T05:19:21;15.55;;;14.13;;
53453;SDS011;49404;50.472;6.954;2022-08-19T05:22:06;14.50;;;13.57;;
53453;SDS011;49404;50.472;6.954;2022-08-19T05:24:56;17.92;;;16.73;;
53453;SDS011;49404;50.472;6.954;2022-08-19T05:27:22;13.10;;;12.10;;
53453;SDS011;49404;50.472;6.954;2022-08-19T05:29:47;17.23;;;15.93;;
53453;SDS011;49404;50.472;6.954;2022-08-19T05:32:13;18.92;;;17.83;;
53453;SDS011;49404;50.472;6.954;2022-08-19T05:34:42;18.05;;;16.95;;
53453;SDS011;49404;50.472;6.954;2022-08-19T05:37:07;17.20;;;16.10;;
53453;SDS011;49404;50.472;6.954;2022-08-19T05:39:33;15.60;;;14.60;;
53453;SDS011;49404;50.472;6.954;2022-08-19T05:42:03;19.13;;;17.52;;
53453;SDS011;49404;50.472;6.954;2022-08-19T05:44:37;20.50;;;19.15;;
53453;SDS011;49404;50.472;6.954;2022-08-19T05:47:09;19.30;;;18.05;;
53453;SDS011;49404;50.472;6.954;2022-08-19T05:49:43;18.60;;;17.38;;
53453;SDS011;49404;50.472;6.954;2022-08-19T05:52:10;19.67;;;18.30;;
53453;SDS011;49404;50.472;6.954;2022-08-19T05:54:52;18.65;;;17.25;;
53453;SDS011;49404;50.472;6.954;2022-08-19T05:57:20;21.13;;;19.60;;
53453;SDS011;49404;50.472;6.954;2022-08-19T05:59:51;15.63;;;14.63;;
53453;SDS011;49404;50.472;6.954;2022-08-19T06:02:18;16.80;;;15.65;;
53453;SDS011;49404;50.472;6.954;2022-08-19T06:04:55;20.13;;;18.38;;
53453;SDS011;49404;50.472;6.954;2022-08-19T06:07:21;17.05;;;15.85;;
53453;SDS011;49404;50.472;6.954;2022-08-19T06:09:50;15.90;;;14.80;;
53453;SDS011;49404;50.472;6.954;2022-08-19T06:12:16;16.02;;;14.43;;
53453;SDS011;49404;50.472;6.954;2022-08-19T06:14:41;14.35;;;13.45;;
53453;SDS011;49404;50.472;6.954;2022-08-19T06:17:07;16.50;;;15.13;;
53453;SDS011;49404;50.472;6.954;2022-08-19T06:19:33;20.23;;;18.95;;
53453;SDS011;49404;50.472;6.954;2022-08-19T06:22:01;22.10;;;20.67;;
53453;SDS011;49404;50.472;6.954;2022-08-19T06:24:30;17.17;;;16.17;;
53453;SDS011;49404;50.472;6.954;2022-08-19T06:26:57;19.38;;;18.33;;
53453;SDS011;49404;50.472;6.954;2022-08-19T06:29:38;17.23;;;16.25;;
53453;SDS011;49404;50.472;6.954;2022-08-19T06:32:07;15.32;;;13.98;;
53453;SDS011;49404;50.472;6.954;2022-08-19T06:34:33;18.23;;;16.65;;
53453;SDS011;49404;50.472;6.954;2022-08-19T06:37:07;17.83;;;16.58;;
53453;SDS011;49404;50.472;6.954;2022-08-19T06:39:34;17.98;;;16.98;;
53453;SDS011;49404;50.472;6.954;2022-08-19T06:42:06;20.95;;;19.02;;
53453;SDS011;49404;50.472;6.954;2022-08-19T06:44:42;20.60;;;18.67;;
53453;SDS011;49404;50.472;6.954;2022-08-19T06:47:11;16.52;;;15.63;;
53453;SDS011;49404;50.472;6.954;2022-08-19T06:49:41;18.83;;;17.23;;
53453;SDS011;49404;50.472;6.954;2022-08-19T06:52:10;20.55;;;19.35;;
53453;SDS011;49404;50.472;6.954;2022-08-19T06:54:41;17.42;;;16.33;;
53453;SDS011;49404;50.472;6.954;2022-08-19T06:57:09;15.63;;;14.43;;
53453;SDS011;49404;50.472;6.954;2022-08-19T06:59:39;15.60;;;14.48;;
53453;SDS011;49404;50.472;6.954;2022-08-19T07:02:05;14.93;;;13.80;;
53453;SDS011;49404;50.472;6.954;2022-08-19T07:04:32;16.52;;;15.52;;
53453;SDS011;49404;50.472;6.954;2022-08-19T07:07:06;14.43;;;13.43;;
53453;SDS011;49404;50.472;6.954;2022-08-19T07:09:37;12.27;;;11.27;;
53453;SDS011;49404;50.472;6.954;2022-08-19T07:12:09;14.20;;;13.00;;
53453;SDS011;49404;50.472;6.954;2022-08-19T07:14:41;19.40;;;18.20;;
53453;SDS011;49404;50.472;6.954;2022-08-19T07:17:09;14.43;;;13.25;;
53453;SDS011;49404;50.472;6.954;2022-08-19T07:19:39;20.95;;;19.38;;
53453;SDS011;49404;50.472;6.954;2022-08-19T07:22:06;20.15;;;18.75;;
53453;SDS011;49404;50.472;6.954;2022-08-19T07:24:33;18.08;;;16.88;;
53453;SDS011;49404;50.472;6.954;2022-08-19T07:27:05;20.77;;;19.38;;
53453;SDS011;49404;50.472;6.954;2022-08-19T07:29:32;17.38;;;16.17;;
53453;SDS011;49404;50.472;6.954;2022-08-19T07:32:05;18.73;;;17.42;;
53453;SDS011;49404;50.472;6.954;2022-08-19T07:34:31;17.88;;;16.65;;
53453;SDS011;49404;50.472;6.954;2022-08-19T07:37:06;20.40;;;19.00;;
53453;SDS011;49404;50.472;6.954;2022-08-19T07:39:37;16.55;;;15.18;;
53453;SDS011;49404;50.472;6.954;2022-08-19T07:42:06;19.17;;;17.85;;
53453;SDS011;49404;50.472;6.954;2022-08-19T07:44:39;15.60;;;14.50;;
53453;SDS011;49404;50.472;6.954;2022-08-19T07:47:05;15.52;;;14.23;;
53453;SDS011;49404;50.472;6.954;2022-08-19T07:49:35;15.57;;;14.57;;
53453;SDS011;49404;50.472;6.954;2022-08-19T07:52:03;16.38;;;14.95;;
53453;SDS011;49404;50.472;6.954;2022-08-19T07:54:38;15.23;;;14.13;;
53453;SDS011;49404;50.472;6.954;2022-08-19T07:57:04;11.27;;;10.35;;
53453;SDS011;49404;50.472;6.954;2022-08-19T07:59:30;11.18;;;10.35;;
53453;SDS011;49404;50.472;6.954;2022-08-19T08:02:02;8.30;;;7.63;;
53453;SDS011;49404;50.472;6.954;2022-08-19T08:04:29;10.88;;;10.07;;
53453;SDS011;49404;50.472;6.954;2022-08-19T08:07:14;12.05;;;9.52;;
53453;SDS011;49404;50.472;6.954;2022-08-19T08:09:59;8.77;;;7.97;;
53453;SDS011;49404;50.472;6.954;2022-08-19T08:12:28;10.43;;;9.55;;
53453;SDS011;49404;50.472;6.954;2022-08-19T08:15:07;8.13;;;7.43;;
53453;SDS011;49404;50.472;6.954;2022-08-19T08:17:41;15.47;;;14.17;;
53453;SDS011;49404;50.472;6.954;2022-08-19T08:20:11;8.15;;;6.95;;
53453;SDS011;49404;50.472;6.954;2022-08-19T08:22:42;9.40;;;8.65;;
53453;SDS011;49404;50.472;6.954;2022-08-19T08:25:28;14.95;;;9.82;;
53453;SDS011;49404;50.472;6.954;2022-08-19T08:27:54;7.80;;;7.00;;
53453;SDS011;49404;50.472;6.954;2022-08-19T08:30:24;9.63;;;8.77;;
53453;SDS011;49404;50.472;6.954;2022-08-19T08:32:51;10.68;;;9.80;;
53453;SDS011;49404;50.472;6.954;2022-08-19T08:35:18;10.07;;;9.32;;
53453;SDS011;49404;50.472;6.954;2022-08-19T08:37:49;8.25;;;7.50;;
53453;SDS011;49404;50.472;6.954;2022-08-19T08:43:19;15.50;;;10.25;;
53453;SDS011;49404;50.472;6.954;2022-08-19T08:46:05;10.95;;;9.98;;
53453;SDS011;49404;50.472;6.954;2022-08-19T08:52:10;7.60;;;6.70;;
53453;SDS011;49404;50.472;6.954;2022-08-19T08:54:52;8.13;;;7.43;;
53453;SDS011;49404;50.472;6.954;2022-08-19T09:00:02;7.15;;;5.72;;
53453;SDS011;49404;50.472;6.954;2022-08-19T09:02:37;7.40;;;6.68;;
53453;SDS011;49404;50.472;6.954;2022-08-19T09:05:05;6.67;;;5.97;;
53453;SDS011;49404;50.472;6.954;2022-08-19T09:07:40;10.13;;;9.32;;
53453;SDS011;49404;50.472;6.954;2022-08-19T09:10:49;10.57;;;7.35;;
53453;SDS011;49404;50.472;6.954;2022-08-19T09:13:36;8.18;;;7.35;;
53453;SDS011;49404;50.472;6.954;2022-08-19T09:16:17;10.20;;;7.80;;
53453;SDS011;49404;50.472;6.954;2022-08-19T09:18:53;9.82;;;9.13;;
53453;SDS011;49404;50.472;6.954;2022-08-19T09:21:27;10.52;;;9.32;;
53453;SDS011;49404;50.472;6.954;2022-08-19T09:23:55;12.48;;;11.68;;
53453;SDS011;49404;50.472;6.954;2022-08-19T09:26:28;12.20;;;11.15;;
53453;SDS011;49404;50.472;6.954;2022-08-19T09:28:58;13.32;;;11.45;;
53453;SDS011;49404;50.472;6.954;2022-08-19T09:31:26;15.68;;;14.75;;
53453;SDS011;49404;50.472;6.954;2022-08-19T09:33:54;14.02;;;12.90;;
53453;SDS011;49404;50.472;6.954;2022-08-19T09:36:24;12.32;;;11.38;;
53453;SDS011;49404;50.472;6.954;2022-08-19T09:38:52;11.35;;;10.55;;
53453;SDS011;49404;50.472;6.954;2022-08-19T09:41:19;15.18;;;13.90;;
53453;SDS011;49404;50.472;6.954;2022-08-19T09:43:50;15.98;;;14.77;;
53453;SDS011;49404;50.472;6.954;2022-08-19T09:46:23;13.13;;;12.23;;
53453;SDS011;49404;50.472;6.954;2022-08-19T09:48:53;14.13;;;13.13;;
53453;SDS011;49404;50.472;6.954;2022-08-19T09:51:24;18.17;;;15.50;;
53453;SDS011;49404;50.472;6.954;2022-08-19T09:53:53;14.80;;;13.52;;
53453;SDS011;49404;50.472;6.954;2022-08-19T09:56:26;18.70;;;17.40;;
53453;SDS011;49404;50.472;6.954;2022-08-19T09:59:00;17.88;;;16.65;;
53453;SDS011;49404;50.472;6.954;2022-08-19T10:01:28;16.10;;;15.05;;
53453;SDS011;49404;50.472;6.954;2022-08-19T10:04:03;12.43;;;11.43;;
53453;SDS011;49404;50.472;6.954;2022-08-19T10:06:37;15.00;;;14.00;;
53453;SDS011;49404;50.472;6.954;2022-08-19T10:09:07;14.82;;;13.50;;
53453;SDS011;49404;50.472;6.954;2022-08-19T10:11:36;12.63;;;11.80;;
53453;SDS011;49404;50.472;6.954;2022-08-19T10:14:05;11.45;;;10.55;;
53453;SDS011;49404;50.472;6.954;2022-08-19T10:16:35;13.10;;;11.93;;
53453;SDS011;49404;50.472;6.954;2022-08-19T10:19:02;17.60;;;16.40;;
53453;SDS011;49404;50.472;6.954;2022-08-19T10:21:30;12.43;;;11.50;;
53453;SDS011;49404;50.472;6.954;2022-08-19T10:24:04;13.10;;;10.60;;
53453;SDS011;49404;50.472;6.954;2022-08-19T10:26:36;15.00;;;13.93;;
53453;SDS011;49404;50.472;6.954;2022-08-19T10:29:04;11.63;;;10.77;;
53453;SDS011;49404;50.472;6.954;2022-08-19T10:31:33;16.50;;;12.02;;
53453;SDS011;49404;50.472;6.954;2022-08-19T10:33:59;16.17;;;15.00;;
53453;SDS011;49404;50.472;6.954;2022-08-19T10:36:27;12.27;;;11.48;;
53453;SDS011;49404;50.472;6.954;2022-08-19T10:39:09;14.98;;;13.75;;
53453;SDS011;49404;50.472;6.954;2022-08-19T10:41:38;13.35;;;12.43;;
53453;SDS011;49404;50.472;6.954;2022-08-19T10:44:11;13.27;;;11.98;;
53453;SDS011;49404;50.472;6.954;2022-08-19T10:46:41;15.82;;;14.55;;
53453;SDS011;49404;50.472;6.954;2022-08-19T10:49:13;15.13;;;14.02;;
53453;SDS011;49404;50.472;6.954;2022-08-19T10:51:39;13.38;;;12.23;;
53453;SDS011;49404;50.472;6.954;2022-08-19T10:57:10;8.52;;;7.82;;
53453;SDS011;49404;50.472;6.954;2022-08-19T10:59:36;8.70;;;8.00;;
53453;SDS011;49404;50.472;6.954;2022-08-19T11:02:02;7.85;;;7.15;;
53453;SDS011;49404;50.472;6.954;2022-08-19T11:04:29;7.43;;;6.72;;
53453;SDS011;49404;50.472;6.954;2022-08-19T11:07:02;7.65;;;5.63;;
53453;SDS011;49404;50.472;6.954;2022-08-19T11:09:29;7.20;;;6.60;;
53453;SDS011;49404;50.472;6.954;2022-08-19T11:12:02;7.03;;;6.53;;
53453;SDS011;49404;50.472;6.954;2022-08-19T11:14:28;6.47;;;5.70;;
53453;SDS011;49404;50.472;6.954;2022-08-19T11:17:03;5.53;;;5.13;;
53453;SDS011;49404;50.472;6.954;2022-08-19T11:21:58;5.22;;;4.82;;
53453;SDS011;49404;50.472;6.954;2022-08-19T11:24:27;5.03;;;3.92;;
53453;SDS011;49404;50.472;6.954;2022-08-19T11:26:53;6.35;;;5.18;;
53453;SDS011;49404;50.472;6.954;2022-08-19T11:29:26;4.65;;;4.25;;
53453;SDS011;49404;50.472;6.954;2022-08-19T11:32:02;6.30;;;4.22;;
53453;SDS011;49404;50.472;6.954;2022-08-19T11:34:36;4.65;;;4.28;;
53453;SDS011;49404;50.472;6.954;2022-08-19T11:37:05;5.85;;;3.72;;
53453;SDS011;49404;50.472;6.954;2022-08-19T11:39:34;4.07;;;3.60;;
53453;SDS011;49404;50.472;6.954;2022-08-19T11:42:02;6.05;;;3.67;;
53453;SDS011;49404;50.472;6.954;2022-08-19T11:44:48;3.13;;;2.83;;
53453;SDS011;49404;50.472;6.954;2022-08-19T11:47:14;5.78;;;2.72;;
53453;SDS011;49404;50.472;6.954;2022-08-19T11:49:40;10.48;;;3.08;;
53453;SDS011;49404;50.472;6.954;2022-08-19T11:52:10;4.70;;;3.78;;
53453;SDS011;49404;50.472;6.954;2022-08-19T11:54:35;4.22;;;3.17;;
53453;SDS011;49404;50.472;6.954;2022-08-19T11:57:02;6.43;;;3.30;;
53453;SDS011;49404;50.472;6.954;2022-08-19T11:59:28;4.68;;;3.10;;
53453;SDS011;49404;50.472;6.954;2022-08-19T12:02:00;3.40;;;3.00;;
53453;SDS011;49404;50.472;6.954;2022-08-19T12:04:26;2.88;;;2.50;;
53453;SDS011;49404;50.472;6.954;2022-08-19T12:06:51;6.50;;;4.30;;
53453;SDS011;49404;50.472;6.954;2022-08-19T12:09:17;6.63;;;3.10;;
53453;SDS011;49404;50.472;6.954;2022-08-19T12:11:46;7.30;;;3.40;;
53453;SDS011;49404;50.472;6.954;2022-08-19T12:14:12;4.10;;;3.08;;
53453;SDS011;49404;50.472;6.954;2022-08-19T12:16:39;5.18;;;3.40;;
53453;SDS011;49404;50.472;6.954;2022-08-19T12:19:06;6.57;;;5.00;;
53453;SDS011;49404;50.472;6.954;2022-08-19T12:21:37;5.75;;;3.75;;
53453;SDS011;49404;50.472;6.954;2022-08-19T12:24:06;8.93;;;3.30;;
53453;SDS011;49404;50.472;6.954;2022-08-19T12:26:38;6.05;;;2.90;;
53453;SDS011;49404;50.472;6.954;2022-08-19T12:29:03;9.90;;;3.22;;
53453;SDS011;49404;50.472;6.954;2022-08-19T12:31:29;3.05;;;2.75;;
53453;SDS011;49404;50.472;6.954;2022-08-19T12:33:58;6.25;;;3.13;;
53453;SDS011;49404;50.472;6.954;2022-08-19T12:36:23;4.10;;;3.75;;
53453;SDS011;49404;50.472;6.954;2022-08-19T12:38:50;5.28;;;2.53;;
53453;SDS011;49404;50.472;6.954;2022-08-19T12:41:17;2.63;;;2.40;;
53453;SDS011;49404;50.472;6.954;2022-08-19T12:43:47;3.45;;;2.30;;
53453;SDS011;49404;50.472;6.954;2022-08-19T12:46:14;3.85;;;3.22;;
53453;SDS011;49404;50.472;6.954;2022-08-19T12:48:48;3.45;;;3.15;;
53453;SDS011;49404;50.472;6.954;2022-08-19T12:51:17;5.53;;;4.10;;
53453;SDS011;49404;50.472;6.954;2022-08-19T12:53:50;3.80;;;3.50;;
53453;SDS011;49404;50.472;6.954;2022-08-19T12:56:15;3.75;;;3.45;;
53453;SDS011;49404;50.472;6.954;2022-08-19T12:58:48;6.07;;;5.47;;
53453;SDS011;49404;50.472;6.954;2022-08-19T13:01:15;5.78;;;4.70;;
53453;SDS011;49404;50.472;6.954;2022-08-19T13:03:51;5.47;;;4.28;;
53453;SDS011;49404;50.472;6.954;2022-08-19T13:06:25;5.63;;;4.55;;
53453;SDS011;49404;50.472;6.954;2022-08-19T13:08:51;5.55;;;4.00;;
53453;SDS011;49404;50.472;6.954;2022-08-19T13:11:18;8.05;;;4.97;;
53453;SDS011;49404;50.472;6.954;2022-08-19T13:13:49;4.97;;;4.57;;
53453;SDS011;49404;50.472;6.954;2022-08-19T13:16:16;5.03;;;4.60;;
53453;SDS011;49404;50.472;6.954;2022-08-19T13:18:48;5.05;;;3.65;;
53453;SDS011;49404;50.472;6.954;2022-08-19T13:21:17;3.88;;;3.58;;
53453;SDS011;49404;50.472;6.954;2022-08-19T13:23:48;4.53;;;3.10;;
53453;SDS011;49404;50.472;6.954;2022-08-19T13:26:15;2.65;;;2.45;;
53453;SDS011;49404;50.472;6.954;2022-08-19T13:28:46;3.55;;;2.55;;
53453;SDS011;49404;50.472;6.954;2022-08-19T13:31:39;2.28;;;2.08;;
53453;SDS011;49404;50.472;6.954;2022-08-19T13:34:26;5.75;;;3.85;;
53453;SDS011;49404;50.472;6.954;2022-08-19T13:37:03;6.72;;;4.50;;
53453;SDS011;49404;50.472;6.954;2022-08-19T13:39:30;4.53;;;4.05;;
53453;SDS011;49404;50.472;6.954;2022-08-19T13:42:00;7.75;;;4.80;;
53453;SDS011;49404;50.472;6.954;2022-08-19T13:44:27;5.90;;;4.60;;
53453;SDS011;49404;50.472;6.954;2022-08-19T13:47:00;5.97;;;5.05;;
53453;SDS011;49404;50.472;6.954;2022-08-19T13:49:34;4.78;;;4.38;;
53453;SDS011;49404;50.472;6.954;2022-08-19T13:52:01;6.50;;;5.95;;
53453;SDS011;49404;50.472;6.954;2022-08-19T13:54:27;13.80;;;5.45;;
53453;SDS011;49404;50.472;6.954;2022-08-19T13:56:53;5.53;;;4.70;;
53453;SDS011;49404;50.472;6.954;2022-08-19T13:59:22;4.28;;;3.97;;
53453;SDS011;49404;50.472;6.954;2022-08-19T14:01:47;4.63;;;3.38;;
53453;SDS011;49404;50.472;6.954;2022-08-19T14:04:13;9.77;;;3.95;;
53453;SDS011;49404;50.472;6.954;2022-08-19T14:06:39;5.55;;;5.05;;
53453;SDS011;49404;50.472;6.954;2022-08-19T14:09:04;4.38;;;3.90;;
53453;SDS011;49404;50.472;6.954;2022-08-19T14:11:30;4.38;;;3.83;;
53453;SDS011;49404;50.472;6.954;2022-08-19T14:13:59;4.20;;;3.80;;
53453;SDS011;49404;50.472;6.954;2022-08-19T14:16:25;6.00;;;4.15;;
53453;SDS011;49404;50.472;6.954;2022-08-19T14:18:52;5.28;;;4.22;;
53453;SDS011;49404;50.472;6.954;2022-08-19T14:21:20;4.32;;;3.95;;
53453;SDS011;49404;50.472;6.954;2022-08-19T14:23:49;6.75;;;4.35;;
53453;SDS011;49404;50.472;6.954;2022-08-19T14:26:16;6.35;;;5.85;;
53453;SDS011;49404;50.472;6.954;2022-08-19T14:28:47;6.68;;;4.40;;
53453;SDS011;49404;50.472;6.954;2022-08-19T14:31:17;5.40;;;4.47;;
53453;SDS011;49404;50.472;6.954;2022-08-19T14:33:53;9.97;;;4.27;;
53453;SDS011;49404;50.472;6.954;2022-08-19T14:36:27;5.10;;;4.70;;
53453;SDS011;49404;50.472;6.954;2022-08-19T14:38:52;5.57;;;5.07;;
53453;SDS011;49404;50.472;6.954;2022-08-19T14:41:19;7.18;;;4.45;;
53453;SDS011;49404;50.472;6.954;2022-08-19T14:43:50;6.57;;;4.63;;
53453;SDS011;49404;50.472;6.954;2022-08-19T14:46:18;7.03;;;5.28;;
53453;SDS011;49404;50.472;6.954;2022-08-19T14:48:51;5.45;;;4.93;;
53453;SDS011;49404;50.472;6.954;2022-08-19T14:51:23;4.90;;;4.40;;
53453;SDS011;49404;50.472;6.954;2022-08-19T14:53:50;4.90;;;4.40;;
53453;SDS011;49404;50.472;6.954;2022-08-19T14:56:17;4.80;;;3.70;;
53453;SDS011;49404;50.472;6.954;2022-08-19T14:58:48;4.75;;;4.38;;
53453;SDS011;49404;50.472;6.954;2022-08-19T15:01:16;4.50;;;3.78;;
53453;SDS011;49404;50.472;6.954;2022-08-19T15:03:48;7.18;;;4.15;;
53453;SDS011;49404;50.472;6.954;2022-08-19T15:06:14;5.28;;;3.85;;
53453;SDS011;49404;50.472;6.954;2022-08-19T15:08:41;6.50;;;3.70;;
53453;SDS011;49404;50.472;6.954;2022-08-19T15:11:13;5.22;;;4.20;;
53453;SDS011;49404;50.472;6.954;2022-08-19T15:13:40;10.90;;;3.67;;
53453;SDS011;49404;50.472;6.954;2022-08-19T15:16:10;5.03;;;4.40;;